Time;durP1;ratioP1;P1;durP2;ratioP2;P2;SDS_P1;SDS_P2;PMS_P1;PMS_P2;Temp;Humidity;BMP_temperature;BMP_pressure;BME280_temperature;BME280_humidity;BME280_pressure;Samples;Min_cycle;Max_cycle;Signal;HPM_P1;HPM_P2
2021/07/14 00:00:51;;;;;;;0.20;0.20;;;;;;;24.70;46.58;98752.28;5045332;28;20022;-79
2021/07/14 00:03:17;;;;;;;0.22;0.22;;;;;;;24.59;46.81;98743.97;5013159;28;20034;-79
2021/07/14 00:05:42;;;;;;;0.00;0.00;;;;;;;24.50;47.16;98749.75;5012065;28;20029;-79
2021/07/14 00:08:10;;;;;;;0.20;0.20;;;;;;;24.47;47.24;98750.50;5011613;28;20536;-79
2021/07/14 00:10:36;;;;;;;0.00;0.00;;;;;;;24.42;47.00;98748.09;5012026;28;20117;-79
2021/07/14 00:23:51;;;;;;;0.63;0.45;;;;;;;24.03;48.72;98764.91;5012971;28;20604;-79
2021/07/14 00:26:16;;;;;;;0.10;0.10;;;;;;;24.03;48.54;98762.94;5012956;28;20108;-79
2021/07/14 00:28:47;;;;;;;0.10;0.10;;;;;;;24.00;48.86;98769.16;5012621;28;20033;-79
2021/07/14 00:31:15;;;;;;;0.10;0.10;;;;;;;24.00;48.95;98768.34;5011389;28;20072;-79
2021/07/14 00:33:41;;;;;;;0.07;0.07;;;;;;;24.03;48.98;98771.13;5011596;28;20113;-79
2021/07/14 00:36:07;;;;;;;0.20;0.20;;;;;;;24.06;49.00;98770.41;5012260;28;20044;-79
2021/07/14 00:38:33;;;;;;;0.22;0.22;;;;;;;24.08;49.10;98762.63;5012783;28;20481;-81
2021/07/14 00:40:58;;;;;;;0.05;0.05;;;;;;;24.12;49.18;98770.81;5012671;28;20033;-79
2021/07/14 00:43:24;;;;;;;0.00;0.00;;;;;;;24.17;49.10;98766.97;5012806;28;20136;-79
2021/07/14 00:45:49;;;;;;;0.00;0.00;;;;;;;24.20;48.97;98763.50;5012407;28;20409;-79
2021/07/14 00:48:21;;;;;;;0.00;0.00;;;;;;;24.23;49.12;98770.94;5011431;28;20029;-78
2021/07/14 00:50:46;;;;;;;0.00;0.00;;;;;;;24.23;48.94;98763.56;5012810;28;20026;-79
2021/07/14 00:53:12;;;;;;;0.00;0.00;;;;;;;24.23;48.99;98763.56;5012154;28;20033;-78
2021/07/14 00:55:37;;;;;;;0.00;0.00;;;;;;;24.23;49.04;98769.00;5011442;28;20451;-78
2021/07/14 00:58:03;;;;;;;0.00;0.00;;;;;;;24.25;48.97;98776.84;5012467;28;20053;-79
2021/07/14 01:00:28;;;;;;;0.00;0.00;;;;;;;24.22;49.07;98770.16;5013030;28;20026;-79
2021/07/14 01:02:54;;;;;;;0.10;0.10;;;;;;;24.23;48.99;98776.41;5012338;28;20096;-77
2021/07/14 01:05:24;;;;;;;0.10;0.10;;;;;;;24.25;49.01;98772.13;5010990;28;20465;-78
2021/07/14 01:08:11;;;;;;;0.03;0.03;;;;;;;24.23;48.85;98771.75;5012378;28;20029;-79
2021/07/14 01:10:50;;;;;;;0.00;0.00;;;;;;;24.23;48.66;98768.22;5012187;28;20469;-79
2021/07/14 01:13:41;;;;;;;0.00;0.00;;;;;;;24.21;48.57;98765.88;5012265;28;20288;-79
2021/07/14 01:16:11;;;;;;;0.00;0.00;;;;;;;24.17;48.33;98764.25;5043863;28;20021;-79
2021/07/14 01:18:55;;;;;;;0.00;0.00;;;;;;;24.07;48.49;98773.91;5011839;28;20030;-79
2021/07/14 01:21:41;;;;;;;0.00;0.00;;;;;;;23.98;48.37;98771.47;5010876;28;20431;-79
2021/07/14 01:24:16;;;;;;;0.00;0.00;;;;;;;23.88;48.57;98778.34;5011888;28;20053;-79
2021/07/14 01:27:33;;;;;;;0.00;0.00;;;;;;;23.82;48.84;98774.38;5010774;28;20031;-78
2021/07/14 01:30:02;;;;;;;0.08;0.08;;;;;;;23.74;49.01;98776.25;5011242;28;20038;-78
2021/07/14 01:32:29;;;;;;;0.00;0.00;;;;;;;23.67;49.07;98771.47;5012154;28;20042;-78
2021/07/14 01:34:59;;;;;;;0.00;0.00;;;;;;;23.62;49.37;98777.25;5011959;28;20030;-78
2021/07/14 01:37:26;;;;;;;0.05;0.05;;;;;;;23.59;49.48;98782.69;5011868;28;20032;-78
2021/07/14 01:39:55;;;;;;;0.10;0.10;;;;;;;23.53;49.51;98771.28;5012065;28;20090;-78
2021/07/14 01:42:23;;;;;;;0.10;0.10;;;;;;;23.49;49.50;98770.47;5010213;28;20030;-78
2021/07/14 01:44:52;;;;;;;0.00;0.00;;;;;;;23.47;49.57;98783.69;5011365;28;20026;-78
2021/07/14 01:47:19;;;;;;;0.03;0.03;;;;;;;23.45;49.63;98794.97;5011550;28;20040;-76
2021/07/14 01:49:46;;;;;;;0.05;0.05;;;;;;;23.40;49.75;98791.75;5010362;28;20022;-76
2021/07/14 01:52:16;;;;;;;0.03;0.03;;;;;;;23.32;49.83;98783.47;5011751;28;20053;-77
2021/07/14 01:54:42;;;;;;;0.00;0.00;;;;;;;23.24;49.80;98775.56;5011757;28;20021;-77
2021/07/14 01:57:09;;;;;;;0.00;0.00;;;;;;;23.20;49.95;98782.91;5011365;28;20053;-77
2021/07/14 01:59:36;;;;;;;0.07;0.07;;;;;;;23.15;50.07;98790.22;5010861;28;20389;-78
2021/07/14 02:02:05;;;;;;;0.00;0.00;;;;;;;23.11;50.16;98769.53;5011706;28;20292;-78
2021/07/14 02:04:35;;;;;;;0.10;0.10;;;;;;;23.10;50.58;98776.13;5011659;28;20022;-77
2021/07/14 02:07:10;;;;;;;0.00;0.00;;;;;;;23.02;50.49;98770.56;5043459;28;20073;-78
2021/07/14 02:09:38;;;;;;;0.10;0.10;;;;;;;23.00;50.64;98772.06;5010161;28;20030;-77
2021/07/14 02:12:09;;;;;;;0.00;0.00;;;;;;;22.96;50.98;98785.66;5011324;28;20094;-78
2021/07/14 02:14:43;;;;;;;0.00;0.00;;;;;;;22.91;50.93;98780.53;5010127;28;20034;-78
2021/07/14 02:17:15;;;;;;;0.00;0.00;;;;;;;22.89;50.98;98782.00;5011274;28;20032;-78
2021/07/14 02:19:48;;;;;;;0.10;0.10;;;;;;;22.85;51.10;98784.69;5010204;28;20500;-78
2021/07/14 02:22:13;;;;;;;0.10;0.10;;;;;;;22.83;51.21;98779.59;5011114;28;20026;-78
2021/07/14 02:24:39;;;;;;;0.00;0.00;;;;;;;22.84;51.47;98777.69;5011530;28;20046;-78
2021/07/14 02:27:06;;;;;;;0.10;0.10;;;;;;;22.81;51.51;98770.22;5011178;28;20026;-78
2021/07/14 02:29:36;;;;;;;0.10;0.10;;;;;;;22.79;51.38;98778.75;5011311;28;20474;-78
2021/07/14 02:32:03;;;;;;;0.10;0.10;;;;;;;22.76;51.65;98775.97;5010894;28;20030;-78
2021/07/14 02:34:28;;;;;;;0.20;0.20;;;;;;;22.71;51.64;98771.63;5011493;28;20030;-78
2021/07/14 02:36:55;;;;;;;0.10;0.10;;;;;;;22.66;51.94;98778.16;5042910;28;20367;-78
2021/07/14 02:39:22;;;;;;;0.00;0.00;;;;;;;22.65;51.96;98782.03;5010686;28;20112;-78
2021/07/14 02:42:05;;;;;;;0.90;0.25;;;;;;;22.63;52.00;98778.91;5011125;28;20040;-78
2021/07/14 02:44:39;;;;;;;0.00;0.00;;;;;;;22.63;52.09;98781.63;5009753;28;20413;-78
2021/07/14 02:47:05;;;;;;;0.00;0.00;;;;;;;22.65;52.01;98781.25;5009644;28;20393;-78
2021/07/14 02:49:32;;;;;;;0.00;0.00;;;;;;;22.63;52.09;98778.91;5010885;28;20026;-78
2021/07/14 02:51:59;;;;;;;0.10;0.10;;;;;;;22.57;52.16;98774.91;5011373;28;20421;-78
2021/07/14 02:54:27;;;;;;;0.00;0.00;;;;;;;22.61;52.29;98775.72;5010533;28;20034;-78
2021/07/14 02:57:02;;;;;;;0.03;0.03;;;;;;;22.61;52.38;98770.28;5009815;28;20022;-78
2021/07/14 02:59:36;;;;;;;0.10;0.10;;;;;;;22.61;52.66;98772.25;5010773;28;20294;-78
2021/07/14 03:02:03;;;;;;;0.00;0.00;;;;;;;22.58;52.61;98772.94;5010971;28;20107;-78
2021/07/14 03:04:32;;;;;;;0.00;0.00;;;;;;;22.62;52.27;98781.97;5010599;28;20038;-78
2021/07/14 03:07:02;;;;;;;0.10;0.10;;;;;;;22.63;52.43;98764.47;5009523;28;20030;-78
2021/07/14 03:09:37;;;;;;;0.05;0.05;;;;;;;22.70;52.24;98783.66;5010505;28;20493;-78
2021/07/14 03:12:11;;;;;;;0.10;0.10;;;;;;;22.77;52.17;98786.50;5014505;28;20022;-78
2021/07/14 03:14:43;;;;;;;0.10;0.10;;;;;;;22.84;52.15;98778.44;5014344;28;20500;-78
2021/07/14 03:17:10;;;;;;;0.10;0.10;;;;;;;22.96;51.85;98788.38;5014158;28;20030;-78
2021/07/14 03:19:36;;;;;;;0.10;0.10;;;;;;;23.08;51.70;98786.59;5014086;28;20408;-78
2021/07/14 03:22:02;;;;;;;0.10;0.10;;;;;;;23.20;51.31;98785.66;5012902;28;20405;-78
2021/07/14 03:24:28;;;;;;;0.10;0.10;;;;;;;23.36;50.82;98794.44;5012406;28;20049;-78
2021/07/14 03:26:54;;;;;;;0.10;0.10;;;;;;;23.53;50.67;98789.63;5013966;28;20496;-78
2021/07/14 03:29:20;;;;;;;0.10;0.10;;;;;;;23.73;50.05;98792.97;5012609;28;20089;-78
2021/07/14 03:31:46;;;;;;;0.10;0.10;;;;;;;23.98;49.39;98796.81;5014230;28;20498;-78
2021/07/14 03:34:12;;;;;;;0.20;0.20;;;;;;;24.21;48.82;98787.72;5013549;28;20038;-78
2021/07/14 03:36:39;;;;;;;0.10;0.10;;;;;;;24.48;48.27;98795.78;5012574;28;20065;-78
2021/07/14 03:39:04;;;;;;;0.10;0.10;;;;;;;24.76;47.76;98798.03;5014076;28;20112;-78
2021/07/14 03:41:31;;;;;;;0.10;0.10;;;;;;;25.06;47.12;98799.84;5012629;28;20177;-78
2021/07/14 03:43:57;;;;;;;0.20;0.10;;;;;;;25.38;46.78;98806.72;5012669;28;20029;-78
2021/07/14 03:46:24;;;;;;;0.05;0.05;;;;;;;25.72;45.66;98804.56;5014089;28;20414;-78
2021/07/14 03:48:52;;;;;;;0.10;0.10;;;;;;;26.09;45.27;98810.22;5012431;28;20034;-78
2021/07/14 03:51:18;;;;;;;0.00;0.00;;;;;;;26.44;44.63;98804.03;5013374;28;20034;-78
2021/07/14 03:53:44;;;;;;;0.00;0.00;;;;;;;26.78;43.85;98803.72;5013662;28;20482;-77
2021/07/14 03:56:10;;;;;;;0.47;0.47;;;;;;;27.17;43.03;98811.13;5013178;28;20030;-78
2021/07/14 03:58:38;;;;;;;0.10;0.10;;;;;;;27.57;42.11;98813.81;5012452;28;20076;-78
2021/07/14 04:01:04;;;;;;;0.17;0.13;;;;;;;27.93;41.09;98808.19;5013627;28;20026;-77
2021/07/14 04:03:31;;;;;;;0.00;0.00;;;;;;;28.34;40.53;98817.06;5013348;28;20034;-77
2021/07/14 04:06:01;;;;;;;0.00;0.00;;;;;;;28.72;39.53;98823.50;5013533;28;20029;-78
2021/07/14 04:08:44;;;;;;;0.00;0.00;;;;;;;29.12;38.64;98817.66;5013152;28;20108;-78
2021/07/14 04:11:13;;;;;;;0.00;0.00;;;;;;;29.46;38.25;98819.72;5013545;28;20444;-78
2021/07/14 04:13:39;;;;;;;0.00;0.00;;;;;;;29.81;37.85;98828.78;5013322;28;20030;-78
2021/07/14 04:16:04;;;;;;;0.00;0.00;;;;;;;30.13;37.31;98822.09;5011973;28;20474;-78
2021/07/14 04:18:30;;;;;;;0.00;0.00;;;;;;;30.43;36.94;98822.47;5013191;28;20034;-78
2021/07/14 04:20:57;;;;;;;0.00;0.00;;;;;;;30.73;36.44;98821.66;5013071;28;20462;-78
2021/07/14 04:23:22;;;;;;;0.00;0.00;;;;;;;31.02;35.89;98818.44;5012418;28;20025;-78
2021/07/14 04:25:48;;;;;;;0.00;0.00;;;;;;;31.35;35.47;98820.63;5011568;28;20061;-78
2021/07/14 04:28:13;;;;;;;0.00;0.00;;;;;;;31.66;35.09;98828.78;5013118;28;20029;-78
2021/07/14 04:30:38;;;;;;;0.00;0.00;;;;;;;31.96;34.64;98833.31;5012810;28;20026;-78
2021/07/14 04:33:04;;;;;;;0.10;0.10;;;;;;;32.20;34.09;98838.72;5011666;28;20032;-77
2021/07/14 04:35:29;;;;;;;0.22;0.10;;;;;;;32.45;33.94;98834.66;5012546;28;20026;-78
2021/07/14 04:37:55;;;;;;;0.00;0.00;;;;;;;32.70;33.55;98837.63;5012312;28;20413;-78
2021/07/14 04:40:22;;;;;;;0.00;0.00;;;;;;;32.92;33.11;98844.66;5012701;28;20388;-79
2021/07/14 04:42:49;;;;;;;0.00;0.00;;;;;;;33.20;32.94;98851.44;5012744;28;20081;-78
2021/07/14 04:45:14;;;;;;;0.00;0.00;;;;;;;33.45;32.70;98844.53;5011377;28;20033;-79
2021/07/14 04:47:40;;;;;;;0.00;0.00;;;;;;;33.70;32.38;98849.34;5011602;28;20402;-78
2021/07/14 04:50:06;;;;;;;0.00;0.00;;;;;;;34.00;32.30;98853.69;5012292;28;20481;-78
2021/07/14 04:52:31;;;;;;;0.00;0.00;;;;;;;34.21;32.22;98848.72;5011254;28;21082;-79
2021/07/14 04:54:57;;;;;;;0.00;0.00;;;;;;;34.47;31.79;98845.97;5011418;28;20053;-79
2021/07/14 04:57:22;;;;;;;0.00;0.00;;;;;;;34.68;31.95;98854.84;5012270;28;20026;-79
2021/07/14 04:59:47;;;;;;;0.00;0.00;;;;;;;34.87;31.49;98855.84;5011255;28;20109;-79
2021/07/14 05:02:13;;;;;;;0.20;0.20;;;;;;;34.88;31.69;98852.63;5011054;28;20409;-79
2021/07/14 05:04:38;;;;;;;0.10;0.10;;;;;;;34.99;31.66;98855.06;5012744;28;20037;-79
2021/07/14 05:07:04;;;;;;;0.00;0.00;;;;;;;34.89;31.89;98859.00;5012297;28;20371;-79
2021/07/14 05:09:29;;;;;;;0.20;0.20;;;;;;;34.81;32.21;98857.63;5011851;28;20061;-80
2021/07/14 05:11:55;;;;;;;0.00;0.00;;;;;;;34.94;32.03;98863.97;5011939;28;20492;-80
2021/07/14 05:14:20;;;;;;;0.00;0.00;;;;;;;35.01;32.26;98866.50;5010795;28;20561;-80
2021/07/14 05:16:46;;;;;;;0.00;0.00;;;;;;;35.15;31.86;98864.47;5012509;28;20029;-78
2021/07/14 05:19:14;;;;;;;0.00;0.00;;;;;;;35.39;31.88;98867.66;5044218;28;20022;-80
2021/07/14 05:21:40;;;;;;;0.10;0.10;;;;;;;35.39;31.62;98864.88;5010891;28;20026;-78
2021/07/14 05:24:06;;;;;;;0.10;0.10;;;;;;;35.62;31.54;98869.22;5010713;28;20026;-78
2021/07/14 05:26:31;;;;;;;0.20;0.20;;;;;;;35.54;31.11;98862.38;5011963;28;20652;-78
2021/07/14 05:28:57;;;;;;;0.20;0.20;;;;;;;35.32;32.04;98862.31;5012174;28;20034;-78
2021/07/14 05:31:22;;;;;;;0.65;0.50;;;;;;;35.08;31.72;98868.25;5012316;28;20041;-78
2021/07/14 05:33:48;;;;;;;0.15;0.15;;;;;;;34.87;32.22;98859.41;5011367;28;20489;-78
2021/07/14 05:36:13;;;;;;;0.10;0.10;;;;;;;34.73;32.37;98865.41;5011702;28;20122;-79
2021/07/14 05:38:41;;;;;;;0.20;0.20;;;;;;;34.63;32.86;98865.31;5011326;28;20028;-78
2021/07/14 05:41:07;;;;;;;0.05;0.05;;;;;;;34.84;32.00;98862.28;5012261;28;20033;-81
2021/07/14 05:43:33;;;;;;;0.20;0.20;;;;;;;34.93;31.97;98860.41;5010190;28;20026;-78
2021/07/14 05:45:58;;;;;;;0.10;0.10;;;;;;;35.00;32.26;98869.72;5010687;28;20473;-80
2021/07/14 05:48:24;;;;;;;0.30;0.30;;;;;;;35.08;31.49;98869.06;5043184;28;20401;-78
2021/07/14 05:50:50;;;;;;;0.10;0.10;;;;;;;35.26;31.31;98873.22;5010366;28;20025;-78
2021/07/14 05:53:16;;;;;;;0.28;0.28;;;;;;;35.52;31.21;98871.16;5011263;28;20596;-78
2021/07/14 05:55:41;;;;;;;0.43;0.30;;;;;;;35.82;30.66;98870.91;5043234;28;20124;-80
2021/07/14 05:58:08;;;;;;;0.03;0.03;;;;;;;36.12;30.03;98883.34;5010324;28;20056;-78
2021/07/14 06:00:33;;;;;;;0.20;0.20;;;;;;;36.13;30.15;98884.09;5011145;28;20018;-77
2021/07/14 06:02:59;;;;;;;0.03;0.03;;;;;;;36.20;29.78;98881.06;5011539;28;20037;-80
2021/07/14 06:05:24;;;;;;;0.22;0.22;;;;;;;36.24;29.58;98887.25;5011428;28;20022;-79
2021/07/14 06:07:50;;;;;;;0.25;0.25;;;;;;;36.35;29.45;98892.41;5010217;28;20112;-78
2021/07/14 06:10:15;;;;;;;0.15;0.15;;;;;;;36.48;29.47;98887.53;5009923;28;20173;-78
2021/07/14 06:12:41;;;;;;;0.00;0.00;;;;;;;36.61;29.22;98890.25;5010964;28;20080;-78
2021/07/14 06:15:07;;;;;;;0.10;0.10;;;;;;;36.84;28.89;98890.91;5010130;28;20064;-78
2021/07/14 06:17:32;;;;;;;0.00;0.00;;;;;;;36.99;28.78;98891.16;5010046;28;20132;-78
2021/07/14 06:19:58;;;;;;;0.05;0.05;;;;;;;36.94;28.95;98897.31;5011734;28;20500;-78
2021/07/14 06:22:24;;;;;;;0.30;0.30;;;;;;;37.00;28.66;98890.69;5009991;28;20474;-78
2021/07/14 06:24:50;;;;;;;0.43;0.43;;;;;;;36.61;28.09;98895.81;5009950;28;20084;-80
2021/07/14 06:27:16;;;;;;;0.20;0.20;;;;;;;36.39;28.87;98890.31;5009582;28;20121;-79
2021/07/14 06:29:41;;;;;;;0.17;0.17;;;;;;;36.17;29.94;98890.31;5010580;28;20022;-79
2021/07/14 06:32:07;;;;;;;0.10;0.10;;;;;;;36.06;29.58;98880.34;5010982;28;20080;-78
2021/07/14 06:34:32;;;;;;;0.20;0.20;;;;;;;35.78;30.15;98889.72;5009295;28;20505;-78
2021/07/14 06:36:58;;;;;;;0.38;0.38;;;;;;;35.63;30.36;98884.66;5011192;28;20029;-79
2021/07/14 06:39:23;;;;;;;0.05;0.05;;;;;;;35.46;30.23;98888.88;5009776;28;20040;-79
2021/07/14 06:41:50;;;;;;;0.10;0.10;;;;;;;35.26;30.74;98887.13;5009864;28;20052;-78
2021/07/14 06:44:15;;;;;;;0.10;0.10;;;;;;;34.93;30.44;98888.19;5011106;28;20481;-78
2021/07/14 06:46:41;;;;;;;0.22;0.22;;;;;;;34.62;31.63;98882.44;5014151;28;20028;-78
2021/07/14 06:49:06;;;;;;;0.40;0.40;;;;;;;34.57;31.65;98894.84;5014568;28;20032;-78
2021/07/14 06:51:31;;;;;;;0.70;0.30;;;;;;;34.39;31.83;98889.09;5014548;28;20026;-78
2021/07/14 06:53:57;;;;;;;0.80;0.50;;;;;;;34.14;32.01;98885.00;5013260;28;20057;-78
2021/07/14 06:56:22;;;;;;;0.32;0.32;;;;;;;33.86;32.29;98887.38;5014612;28;20081;-80
2021/07/14 06:58:48;;;;;;;1.08;0.45;;;;;;;33.52;32.86;98883.91;5013313;28;20078;-77
2021/07/14 07:01:14;;;;;;;0.52;0.30;;;;;;;33.48;33.17;98888.78;5014794;28;20033;-78
2021/07/14 07:03:40;;;;;;;0.17;0.17;;;;;;;33.45;33.45;98883.34;5013123;28;20033;-78
2021/07/14 07:06:06;;;;;;;0.30;0.30;;;;;;;33.34;33.68;98883.59;5013296;28;20034;-78
2021/07/14 07:08:32;;;;;;;0.20;0.20;;;;;;;33.08;34.20;98872.34;5014237;28;20105;-77
2021/07/14 07:10:58;;;;;;;0.50;0.50;;;;;;;32.91;34.39;98874.34;5014220;28;20030;-78
2021/07/14 07:13:24;;;;;;;0.17;0.15;;;;;;;32.80;35.01;98876.56;5014006;28;20036;-78
2021/07/14 07:15:49;;;;;;;0.43;0.43;;;;;;;32.70;34.51;98879.16;5013042;28;20026;-79
2021/07/14 07:18:16;;;;;;;0.20;0.20;;;;;;;32.59;34.86;98881.38;5014120;28;20485;-77
2021/07/14 07:20:42;;;;;;;0.57;0.57;;;;;;;32.43;35.28;98875.81;5014108;28;20034;-79
2021/07/14 07:23:10;;;;;;;1.85;0.57;;;;;;;32.36;35.30;98883.06;5014273;28;20030;-79
2021/07/14 07:25:36;;;;;;;0.50;0.50;;;;;;;32.12;34.28;98879.59;5014053;28;20084;-80
2021/07/14 07:28:03;;;;;;;0.15;0.15;;;;;;;31.90;35.17;98873.72;5013905;28;20030;-78
2021/07/14 07:30:29;;;;;;;0.00;0.00;;;;;;;31.74;34.72;98880.75;5013776;28;20029;-79
2021/07/14 07:32:54;;;;;;;0.15;0.15;;;;;;;31.63;35.20;98871.84;5012748;28;20040;-79
2021/07/14 07:35:19;;;;;;;0.32;0.32;;;;;;;31.56;36.20;98866.44;5012547;28;20488;-79
2021/07/14 07:37:45;;;;;;;0.30;0.30;;;;;;;31.44;36.60;98876.13;5012626;28;20498;-78
2021/07/14 07:40:11;;;;;;;0.35;0.35;;;;;;;31.45;36.40;98881.22;5014213;28;20068;-80
2021/07/14 07:42:37;;;;;;;0.30;0.30;;;;;;;31.39;36.71;98866.34;5012316;28;20026;-79
2021/07/14 07:45:04;;;;;;;0.55;0.55;;;;;;;31.41;36.04;98865.94;5045675;28;20033;-79
2021/07/14 07:47:30;;;;;;;0.00;0.00;;;;;;;31.39;36.57;98871.09;5045489;28;20147;-79
2021/07/14 07:49:55;;;;;;;0.30;0.30;;;;;;;31.33;36.48;98865.28;5013896;28;20116;-79
2021/07/14 07:52:22;;;;;;;0.10;0.10;;;;;;;31.32;36.99;98869.22;5012195;28;20029;-80
2021/07/14 07:54:48;;;;;;;0.10;0.10;;;;;;;31.27;35.84;98873.28;5012356;28;20026;-80
2021/07/14 07:57:14;;;;;;;0.10;0.10;;;;;;;31.11;35.90;98868.41;5013322;28;20030;-79
2021/07/14 07:59:39;;;;;;;0.85;0.20;;;;;;;31.04;37.01;98870.47;5045263;28;20049;-80
2021/07/14 08:02:05;;;;;;;0.57;0.57;;;;;;;30.96;36.73;98864.31;5012252;28;20025;-81
2021/07/14 08:04:31;;;;;;;0.35;0.30;;;;;;;30.91;37.00;98860.03;5013861;28;20053;-81
2021/07/14 08:06:57;;;;;;;0.40;0.40;;;;;;;30.90;37.78;98865.97;5012393;28;20501;-80
2021/07/14 08:09:22;;;;;;;0.20;0.20;;;;;;;30.85;37.83;98870.00;5012067;28;20030;-79
2021/07/14 08:11:48;;;;;;;0.52;0.52;;;;;;;30.85;38.14;98867.22;5012355;28;20030;-78
2021/07/14 08:14:16;;;;;;;0.30;0.30;;;;;;;30.88;37.37;98860.84;5012138;28;20057;-78
2021/07/14 08:16:41;;;;;;;;;;;;;;;31.03;37.48;98866.16;5013701;28;20064;-78
2021/07/14 08:19:07;;;;;;;0.10;0.10;;;;;;;31.08;36.98;98868.44;5012206;28;20345;-79
2021/07/14 08:21:32;;;;;;;0.32;0.32;;;;;;;31.06;37.06;98859.78;5013507;28;20038;-80
2021/07/14 08:23:58;;;;;;;1.08;1.00;;;;;;;31.05;37.29;98856.25;5012012;28;20481;-79
2021/07/14 08:26:24;;;;;;;0.10;0.10;;;;;;;31.20;38.30;98864.31;5011605;28;20448;-79
2021/07/14 08:28:51;;;;;;;1.70;1.47;;;;;;;31.28;37.78;98861.00;5013291;28;20033;-78
2021/07/14 08:31:17;;;;;;;0.75;0.75;;;;;;;31.31;37.79;98864.94;5013452;28;20280;-79
2021/07/14 08:33:42;;;;;;;0.05;0.05;;;;;;;31.33;36.70;98858.97;5013102;28;20489;-79
2021/07/14 08:36:08;;;;;;;0.10;0.10;;;;;;;31.39;37.63;98849.75;5011985;28;20034;-78
2021/07/14 08:38:33;;;;;;;0.30;0.30;;;;;;;31.36;36.09;98858.13;5012941;28;20026;-79
2021/07/14 08:41:00;;;;;;;0.10;0.10;;;;;;;31.35;36.53;98860.13;5011937;28;20026;-80
2021/07/14 08:43:31;;;;;;;1.87;1.43;;;;;;;31.24;36.28;98859.53;5011613;28;20038;-78
2021/07/14 08:46:01;;;;;;;0.47;0.47;;;;;;;31.14;36.60;98850.22;5012763;28;20539;-78
2021/07/14 08:48:28;;;;;;;0.73;0.73;;;;;;;31.04;37.57;98840.91;5011412;28;20038;-80
2021/07/14 08:50:58;;;;;;;0.55;0.55;;;;;;;30.97;37.38;98843.78;5013016;28;20021;-78
2021/07/14 08:53:24;;;;;;;2.38;0.90;;;;;;;30.92;37.57;98835.94;5012702;28;20042;-79
2021/07/14 08:55:50;;;;;;;0.40;0.40;;;;;;;30.97;36.77;98841.00;5012791;28;20026;-79
2021/07/14 08:58:20;;;;;;;0.60;0.60;;;;;;;31.05;37.12;98838.91;5012764;28;20456;-79
2021/07/14 09:00:48;;;;;;;0.17;0.17;;;;;;;31.10;37.68;98844.75;5011000;28;20049;-78
2021/07/14 09:03:13;;;;;;;0.20;0.20;;;;;;;31.12;37.49;98834.06;5044154;28;20029;-79
2021/07/14 09:05:39;;;;;;;0.13;0.13;;;;;;;31.20;38.02;98833.94;5012333;28;20032;-78
2021/07/14 09:08:05;;;;;;;0.28;0.28;;;;;;;31.32;38.28;98838.84;5012292;28;20030;-78
2021/07/14 09:10:30;;;;;;;0.52;0.52;;;;;;;31.43;37.71;98838.66;5011952;28;20386;-78
2021/07/14 09:12:57;;;;;;;0.55;0.15;;;;;;;31.55;37.49;98840.00;5012434;28;20066;-78
2021/07/14 09:15:27;;;;;;;0.30;0.30;;;;;;;31.62;36.68;98840.66;5012273;28;20100;-78
2021/07/14 09:17:55;;;;;;;0.03;0.03;;;;;;;31.76;36.41;98834.09;5012266;28;20037;-79
2021/07/14 09:20:25;;;;;;;0.10;0.10;;;;;;;31.90;36.42;98838.56;5012682;28;20511;-79
2021/07/14 09:23:17;;;;;;;0.63;0.35;;;;;;;31.86;36.10;98831.53;5010864;28;20026;-78
2021/07/14 09:25:44;;;;;;;0.52;0.52;;;;;;;31.85;36.55;98822.47;5011931;28;20453;-78
2021/07/14 09:28:11;;;;;;;8.18;1.15;;;;;;;31.81;36.26;98827.31;5012249;28;20034;-79
2021/07/14 09:30:38;;;;;;;0.10;0.10;;;;;;;31.86;36.02;98826.00;5010687;28;20061;-79
2021/07/14 09:33:10;;;;;;;0.43;0.43;;;;;;;31.95;34.67;98834.50;5012532;28;20096;-79
2021/07/14 09:35:42;;;;;;;0.20;0.20;;;;;;;32.00;35.12;98827.72;5011591;28;20552;-79
2021/07/14 09:38:14;;;;;;;0.45;0.43;;;;;;;32.04;34.46;98840.25;5012324;28;20033;-79
2021/07/14 09:40:41;;;;;;;0.73;0.65;;;;;;;31.96;35.31;98825.00;5011915;28;20044;-77
2021/07/14 09:43:06;;;;;;;0.07;0.07;;;;;;;31.94;34.92;98835.72;5011815;28;20033;-78
2021/07/14 09:45:45;;;;;;;0.43;0.43;;;;;;;31.95;33.88;98834.50;5011587;28;20117;-79
2021/07/14 09:48:12;;;;;;;0.10;0.10;;;;;;;31.96;34.00;98830.53;5012147;28;20038;-79
2021/07/14 09:50:40;;;;;;;0.08;0.08;;;;;;;32.03;33.76;98824.06;5010330;28;20040;-79
2021/07/14 09:53:10;;;;;;;0.70;0.70;;;;;;;32.02;34.04;98834.38;5011754;28;20030;-80
2021/07/14 09:55:36;;;;;;;0.45;0.45;;;;;;;31.93;34.01;98828.63;5011430;28;20026;-79
2021/07/14 09:58:21;;;;;;;0.90;0.90;;;;;;;31.92;34.41;98829.81;5011765;28;20109;-80
2021/07/14 10:00:49;;;;;;;0.30;0.30;;;;;;;31.93;35.36;98828.63;5011620;28;20042;-79
2021/07/14 10:03:21;;;;;;;0.25;0.25;;;;;;;31.89;34.55;98825.16;5011852;28;20034;-80
2021/07/14 10:05:47;;;;;;;0.52;0.47;;;;;;;31.84;33.50;98826.44;5011260;28;20109;-79
2021/07/14 10:08:14;;;;;;;1.23;1.13;;;;;;;31.81;34.46;98824.53;5011555;28;20022;-79
2021/07/14 10:10:40;;;;;;;1.13;0.85;;;;;;;31.83;35.03;98818.56;5009847;28;20092;-78
2021/07/14 10:13:10;;;;;;;0.00;0.00;;;;;;;31.91;33.00;98818.00;5011458;28;20022;-79
2021/07/14 10:15:37;;;;;;;0.30;0.30;;;;;;;31.90;33.43;98816.44;5009609;28;20079;-79
2021/07/14 10:18:03;;;;;;;2.60;0.57;;;;;;;31.94;34.40;98813.59;5010157;28;20040;-79
2021/07/14 10:20:33;;;;;;;0.10;0.10;;;;;;;32.07;34.00;98817.25;5012519;28;20033;-79
2021/07/14 10:23:05;;;;;;;0.28;0.20;;;;;;;32.19;34.17;98815.81;5013985;28;20405;-79
2021/07/14 10:25:33;;;;;;;1.95;0.63;;;;;;;32.16;33.61;98819.44;5015111;28;20136;-77
2021/07/14 10:28:00;;;;;;;0.28;0.22;;;;;;;32.16;33.48;98815.91;5015194;28;20036;-78
2021/07/14 10:30:26;;;;;;;1.45;1.45;;;;;;;32.15;34.98;98814.34;5014011;28;20525;-78
2021/07/14 10:32:54;;;;;;;0.55;0.43;;;;;;;32.16;34.79;98816.66;5015151;28;20481;-78
2021/07/14 10:35:22;;;;;;;0.45;0.45;;;;;;;32.20;35.23;98800.00;5015184;28;20030;-78
2021/07/14 10:37:59;;;;;;;0.45;0.45;;;;;;;32.33;34.45;98802.91;5014740;28;20041;-78
2021/07/14 10:40:26;;;;;;;0.80;0.80;;;;;;;32.28;32.45;98820.78;5014978;28;20030;-78
2021/07/14 10:42:52;;;;;;;0.90;0.70;;;;;;;32.25;32.95;98803.06;5014740;28;20496;-78
2021/07/14 10:45:20;;;;;;;0.73;0.57;;;;;;;32.26;32.52;98803.84;5014801;28;20038;-80
2021/07/14 10:47:47;;;;;;;0.22;0.22;;;;;;;32.26;33.35;98809.38;5013566;28;20280;-79
2021/07/14 10:50:16;;;;;;;0.75;0.73;;;;;;;32.18;33.57;98797.66;5013593;28;20084;-81
2021/07/14 10:52:41;;;;;;;0.60;0.60;;;;;;;32.21;33.94;98794.09;5013468;28;20116;-79
2021/07/14 10:55:17;;;;;;;0.50;0.50;;;;;;;32.20;33.30;98794.47;5013981;28;20153;-80
2021/07/14 10:57:43;;;;;;;0.68;0.68;;;;;;;32.20;33.12;98802.75;5046610;28;20030;-78
2021/07/14 11:00:10;;;;;;;0.50;0.50;;;;;;;32.14;33.22;98796.19;5013732;28;20049;-78
2021/07/14 11:02:44;;;;;;;0.08;0.08;;;;;;;32.21;32.89;98796.84;5014563;28;20025;-79
2021/07/14 11:05:11;;;;;;;0.10;0.10;;;;;;;32.22;32.91;98786.53;5013458;28;20041;-78
2021/07/14 11:07:42;;;;;;;1.55;1.45;;;;;;;32.21;32.70;98794.09;5014484;28;20489;-78
2021/07/14 11:10:27;;;;;;;2.35;0.80;;;;;;;32.22;33.03;98790.09;5013208;28;20026;-79
2021/07/14 11:12:54;;;;;;;0.50;0.50;;;;;;;32.27;33.09;98793.56;5014330;28;20058;-79
2021/07/14 11:15:28;;;;;;;0.35;0.35;;;;;;;32.23;32.26;98793.66;5013188;28;20026;-80
2021/07/14 11:17:54;;;;;;;0.40;0.40;;;;;;;32.12;31.55;98790.28;5014269;28;20079;-78
2021/07/14 11:20:19;;;;;;;0.80;0.80;;;;;;;32.14;32.36;98785.91;5014590;28;20029;-80
2021/07/14 11:22:49;;;;;;;0.10;0.10;;;;;;;32.17;33.39;98782.28;5012856;28;20394;-79
2021/07/14 11:25:20;;;;;;;0.50;0.50;;;;;;;32.31;32.58;98788.72;5013911;28;20133;-80
2021/07/14 11:27:53;;;;;;;0.93;0.93;;;;;;;32.36;32.68;98780.69;5013913;28;20591;-79
2021/07/14 11:30:21;;;;;;;0.55;0.20;;;;;;;32.45;31.59;98791.16;5012742;28;20026;-79
2021/07/14 11:32:46;;;;;;;3.75;0.30;;;;;;;32.44;31.41;98791.59;5013480;28;20025;-80
2021/07/14 11:35:17;;;;;;;0.60;0.60;;;;;;;32.36;30.99;98780.69;5012804;28;20096;-79
2021/07/14 11:37:55;;;;;;;0.00;0.00;;;;;;;32.34;30.73;98791.41;5013553;28;20545;-79
2021/07/14 11:40:21;;;;;;;1.35;0.47;;;;;;;32.28;31.60;98779.28;5012782;28;20068;-80
2021/07/14 11:42:57;;;;;;;0.10;0.10;;;;;;;32.32;32.18;98771.69;5013540;28;20458;-81
2021/07/14 11:45:25;;;;;;;0.00;0.00;;;;;;;32.37;32.14;98767.63;5014233;28;20548;-81
2021/07/14 11:48:01;;;;;;;0.13;0.13;;;;;;;32.33;32.23;98776.00;5013723;28;20104;-80